createdAt,value
2023-02-26T00:01:23.168Z,3.73
2023-02-26T00:03:52.261Z,3.82
2023-02-26T00:06:20.253Z,3.61
2023-02-26T00:08:47.814Z,3.58
2023-02-26T00:11:15.979Z,3.48
2023-02-26T00:13:45.663Z,3.59
2023-02-26T00:16:26.757Z,3.79
2023-02-26T00:18:56.283Z,3.77
2023-02-26T00:21:25.300Z,3.50
2023-02-26T00:23:53.133Z,3.09
2023-02-26T00:26:21.214Z,3.13
2023-02-26T00:28:50.001Z,2.91
2023-02-26T00:31:20.880Z,2.90
2023-02-26T00:33:48.857Z,2.89
2023-02-26T00:36:23.009Z,2.80
2023-02-26T00:39:02.405Z,2.92
2023-02-26T00:41:30.424Z,3.32
2023-02-26T00:43:58.400Z,3.23
2023-02-26T00:46:30.962Z,3.29
2023-02-26T00:49:04.826Z,3.56
2023-02-26T00:51:38.300Z,3.51
2023-02-26T00:54:10.704Z,3.59
2023-02-26T00:56:38.581Z,3.56
2023-02-26T00:59:06.093Z,3.62
2023-02-26T01:01:33.614Z,3.74
2023-02-26T01:04:01.673Z,3.74
2023-02-26T01:06:33.712Z,3.72
2023-02-26T01:09:05.220Z,3.71
2023-02-26T01:11:33.152Z,3.70
2023-02-26T01:14:01.123Z,3.31
2023-02-26T01:16:29.835Z,3.48
2023-02-26T01:19:01.414Z,3.50
2023-02-26T01:21:34.616Z,3.27
2023-02-26T01:24:04.712Z,3.47
2023-02-26T01:26:32.520Z,3.46
2023-02-26T01:29:00.361Z,3.26
2023-02-26T01:31:36.486Z,3.30
2023-02-26T01:34:08.166Z,3.35
2023-02-26T01:36:41.582Z,3.31
2023-02-26T01:39:15.900Z,3.46
2023-02-26T01:41:45.992Z,3.04
2023-02-26T01:44:16.892Z,3.04
2023-02-26T01:47:05.508Z,3.08
2023-02-26T01:49:33.633Z,3.23
2023-02-26T01:52:03.503Z,3.08
2023-02-26T01:54:32.716Z,3.17
2023-02-26T01:57:04.816Z,2.89
2023-02-26T01:59:33.483Z,3.29
2023-02-26T02:02:04.251Z,3.29
2023-02-26T02:04:32.028Z,3.55
2023-02-26T02:07:00.232Z,3.31
2023-02-26T02:09:29.020Z,3.28
2023-02-26T02:12:13.027Z,3.42
2023-02-26T02:14:47.785Z,3.57
2023-02-26T02:17:19.480Z,3.41
2023-02-26T02:20:06.327Z,3.48
2023-02-26T02:22:42.141Z,3.57
2023-02-26T02:25:22.024Z,3.43
2023-02-26T02:27:55.927Z,3.37
2023-02-26T02:30:32.524Z,3.32
2023-02-26T02:33:03.666Z,3.39
2023-02-26T02:35:34.867Z,3.52
2023-02-26T02:38:06.933Z,3.53
2023-02-26T02:40:35.914Z,3.28
2023-02-26T02:43:06.049Z,3.33
2023-02-26T02:45:39.476Z,3.46
2023-02-26T02:48:12.144Z,3.50
2023-02-26T02:50:42.787Z,3.46
2023-02-26T02:53:12.735Z,3.43
2023-02-26T02:55:44.404Z,3.06
2023-02-26T02:58:14.207Z,3.15
2023-02-26T03:00:44.708Z,2.92
2023-02-26T03:03:17.435Z,2.75
2023-02-26T03:05:45.039Z,2.84
2023-02-26T03:08:14.949Z,2.72
2023-02-26T03:10:42.673Z,2.92
2023-02-26T03:13:16.454Z,2.75
2023-02-26T03:15:47.378Z,3.01
2023-02-26T03:18:21.327Z,2.89
2023-02-26T03:20:57.199Z,2.84
2023-02-26T03:23:28.838Z,3.10
2023-02-26T03:26:03.587Z,3.18
2023-02-26T03:28:34.120Z,3.19
2023-02-26T03:31:05.675Z,3.15
2023-02-26T03:33:39.900Z,3.22
2023-02-26T03:36:09.881Z,3.23
2023-02-26T03:38:40.306Z,3.26
2023-02-26T03:41:10.118Z,3.14
2023-02-26T03:43:40.990Z,3.15
2023-02-26T03:46:11.988Z,3.12
2023-02-26T03:48:40.841Z,3.26
2023-02-26T03:51:12.079Z,3.16
2023-02-26T03:53:43.837Z,3.17
2023-02-26T03:56:15.791Z,3.24
2023-02-26T03:58:43.342Z,3.14
2023-02-26T04:01:13.811Z,3.03
2023-02-26T04:03:46.355Z,3.12
2023-02-26T04:06:14.125Z,2.85
2023-02-26T04:08:41.792Z,3.02
2023-02-26T04:11:11.891Z,2.86
2023-02-26T04:13:39.319Z,2.82
2023-02-26T04:16:07.425Z,2.78
2023-02-26T04:18:34.805Z,2.65
2023-02-26T04:21:04.491Z,2.75
2023-02-26T04:23:32.016Z,2.96
2023-02-26T04:25:59.653Z,2.89
2023-02-26T04:28:27.037Z,2.85
2023-02-26T04:30:54.641Z,2.94
2023-02-26T04:33:23.170Z,3.04
2023-02-26T04:35:50.674Z,2.80
2023-02-26T04:38:19.449Z,3.04
2023-02-26T04:40:46.928Z,3.01
2023-02-26T04:43:14.298Z,2.93
2023-02-26T04:45:41.674Z,3.07
2023-02-26T04:48:09.135Z,3.01
2023-02-26T04:50:36.619Z,2.88
2023-02-26T04:53:04.140Z,2.86
2023-02-26T04:55:33.013Z,2.87
2023-02-26T04:58:00.387Z,2.77
2023-02-26T05:00:27.987Z,2.47
2023-02-26T05:02:55.505Z,2.32
2023-02-26T05:05:23.092Z,2.63
2023-02-26T05:07:50.511Z,2.38
2023-02-26T05:10:18.090Z,2.59
2023-02-26T05:12:46.962Z,2.50
2023-02-26T05:15:14.348Z,2.25
2023-02-26T05:17:41.728Z,2.46
2023-02-26T05:20:11.380Z,2.58
2023-02-26T05:22:39.493Z,2.61
2023-02-26T05:25:07.808Z,2.67
2023-02-26T05:27:35.470Z,2.50
2023-02-26T05:30:05.300Z,2.41
2023-02-26T05:32:32.863Z,2.66
2023-02-26T05:35:00.351Z,2.54
2023-02-26T05:37:27.884Z,2.61
2023-02-26T05:39:55.356Z,2.67
2023-02-26T05:42:22.875Z,2.51
2023-02-26T05:44:50.390Z,2.51
2023-02-26T05:47:19.184Z,2.55
2023-02-26T05:49:46.547Z,2.63
2023-02-26T05:52:13.899Z,2.69
2023-02-26T05:54:41.428Z,2.60
2023-02-26T05:57:08.991Z,2.47
2023-02-26T05:59:36.405Z,2.54
2023-02-26T06:02:04.065Z,2.65
2023-02-26T06:04:32.903Z,2.69
2023-02-26T06:07:00.358Z,2.67
2023-02-26T06:09:27.812Z,2.65
2023-02-26T06:11:55.260Z,2.65
2023-02-26T06:14:22.927Z,2.59
2023-02-26T06:16:50.445Z,2.45
2023-02-26T06:19:17.981Z,2.68
2023-02-26T06:21:46.970Z,2.51
2023-02-26T06:24:14.860Z,2.55
2023-02-26T06:26:42.330Z,2.49
2023-02-26T06:29:09.824Z,2.51
2023-02-26T06:31:37.342Z,2.57
2023-02-26T06:34:04.798Z,2.51
2023-02-26T06:36:32.248Z,2.55
2023-02-26T06:39:01.073Z,2.58
2023-02-26T06:41:28.543Z,2.60
2023-02-26T06:43:56.006Z,2.42
2023-02-26T06:46:24.104Z,2.56
2023-02-26T06:48:51.817Z,2.57
2023-02-26T06:51:19.331Z,2.51
2023-02-26T06:53:46.854Z,2.54
2023-02-26T06:56:15.809Z,2.59
2023-02-26T06:58:43.339Z,2.53
2023-02-26T07:01:11.028Z,2.46
2023-02-26T07:03:38.528Z,2.46
2023-02-26T07:06:25.938Z,2.41
2023-02-26T07:08:54.722Z,2.37
2023-02-26T07:11:23.685Z,2.20
2023-02-26T07:13:52.015Z,2.36
2023-02-26T07:16:19.651Z,2.04
2023-02-26T07:18:47.164Z,2.24
2023-02-26T07:21:14.565Z,2.18
2023-02-26T07:23:42.087Z,2.15
2023-02-26T07:26:09.892Z,2.13
2023-02-26T07:28:38.675Z,1.90
2023-02-26T07:31:06.595Z,2.12
2023-02-26T07:33:35.198Z,2.09
2023-02-26T07:36:02.692Z,2.13
2023-02-26T07:38:30.040Z,2.10
2023-02-26T07:40:57.650Z,2.11
2023-02-26T07:43:26.193Z,2.05
2023-02-26T07:45:54.988Z,2.19
2023-02-26T07:48:22.700Z,2.36
2023-02-26T07:50:52.724Z,2.34
2023-02-26T07:53:20.108Z,2.31
2023-02-26T07:55:47.920Z,2.40
2023-02-26T07:58:15.458Z,2.41
2023-02-26T08:00:42.961Z,2.32
2023-02-26T08:03:11.837Z,2.28
2023-02-26T08:05:39.375Z,2.39
2023-02-26T08:08:06.990Z,2.52
2023-02-26T08:10:34.502Z,2.51
2023-02-26T08:13:01.908Z,2.65
2023-02-26T08:15:29.492Z,2.63
2023-02-26T08:17:56.966Z,2.77
2023-02-26T08:20:25.803Z,2.80
2023-02-26T08:22:53.314Z,2.92
2023-02-26T08:25:21.002Z,2.95
2023-02-26T08:27:48.540Z,2.94
2023-02-26T08:30:16.300Z,3.06
2023-02-26T08:32:45.970Z,3.03
2023-02-26T08:35:13.574Z,3.23
2023-02-26T08:37:42.752Z,3.33
2023-02-26T08:40:15.056Z,3.26
2023-02-26T08:42:42.825Z,3.16
2023-02-26T08:45:11.125Z,3.30
2023-02-26T08:47:53.919Z,3.24
2023-02-26T08:50:24.230Z,3.19
2023-02-26T08:52:53.551Z,3.35
2023-02-26T08:55:21.212Z,3.35
2023-02-26T08:57:48.756Z,3.45
2023-02-26T09:00:18.643Z,3.63
2023-02-26T09:02:46.642Z,3.51
2023-02-26T09:05:14.983Z,3.82
2023-02-26T09:07:42.725Z,3.51
2023-02-26T09:10:13.723Z,3.29
2023-02-26T09:12:41.414Z,3.39
2023-02-26T09:15:10.968Z,3.58
2023-02-26T09:17:38.990Z,3.52
2023-02-26T09:20:07.735Z,3.68
2023-02-26T09:22:35.295Z,3.60
2023-02-26T09:25:03.342Z,3.79
2023-02-26T09:27:32.203Z,3.56
2023-02-26T09:29:59.820Z,3.74
2023-02-26T09:32:27.743Z,3.75
2023-02-26T09:34:55.777Z,4.02
2023-02-26T09:37:23.294Z,4.13
2023-02-26T09:39:52.681Z,3.80
2023-02-26T09:42:30.716Z,3.88
2023-02-26T09:45:00.408Z,3.95
2023-02-26T09:47:31.443Z,3.92
2023-02-26T09:50:05.951Z,3.83
2023-02-26T09:52:37.283Z,4.02
2023-02-26T09:55:11.369Z,3.98
2023-02-26T09:57:43.051Z,4.03
2023-02-26T10:00:24.789Z,3.86
2023-02-26T10:02:58.327Z,3.97
2023-02-26T10:05:31.344Z,4.21
2023-02-26T10:08:00.817Z,4.43
2023-02-26T10:10:35.064Z,4.19
2023-02-26T10:13:02.627Z,4.35
2023-02-26T10:15:38.017Z,4.27
2023-02-26T10:18:10.860Z,4.23
2023-02-26T10:20:42.082Z,4.04
2023-02-26T10:23:21.030Z,4.07
2023-02-26T10:25:51.010Z,4.30
2023-02-26T10:28:35.745Z,4.47
2023-02-26T10:31:09.504Z,4.11
2023-02-26T10:33:42.644Z,4.21
2023-02-26T10:36:28.928Z,4.29
2023-02-26T10:39:09.000Z,4.11
2023-02-26T10:41:40.857Z,4.28
2023-02-26T10:44:18.154Z,4.23
2023-02-26T10:46:54.916Z,4.19
2023-02-26T10:49:54.241Z,4.21
2023-02-26T10:52:25.466Z,4.56
2023-02-26T10:55:04.949Z,4.47
2023-02-26T10:57:35.022Z,4.52
2023-02-26T11:00:03.043Z,4.42
2023-02-26T11:02:38.491Z,4.53
2023-02-26T11:05:08.454Z,4.44
2023-02-26T11:07:38.190Z,4.70
2023-02-26T11:10:09.178Z,4.67
2023-02-26T11:12:37.983Z,4.31
2023-02-26T11:15:06.385Z,4.65
2023-02-26T11:17:36.029Z,4.51
2023-02-26T11:20:08.957Z,4.73
2023-02-26T11:22:37.797Z,4.60
2023-02-26T11:25:06.216Z,4.60
2023-02-26T11:27:36.924Z,4.47
2023-02-26T11:30:07.909Z,4.50
2023-02-26T11:32:39.547Z,4.58
2023-02-26T11:35:09.455Z,4.56
2023-02-26T11:37:40.622Z,4.58
2023-02-26T11:40:15.455Z,4.62
2023-02-26T11:42:45.820Z,4.59
2023-02-26T11:45:15.064Z,4.52
2023-02-26T11:47:43.938Z,4.56
2023-02-26T11:50:16.800Z,4.46
2023-02-26T11:52:45.738Z,4.67
2023-02-26T11:55:20.655Z,4.82
2023-02-26T11:57:53.861Z,4.99
2023-02-26T12:00:30.931Z,4.88
2023-02-26T12:03:04.260Z,4.89
2023-02-26T12:05:32.397Z,4.70
2023-02-26T12:07:59.776Z,4.71
2023-02-26T12:10:33.180Z,4.86
2023-02-26T12:13:08.697Z,4.77
2023-02-26T12:15:40.737Z,4.95
2023-02-26T12:18:20.017Z,5.03
2023-02-26T12:20:54.690Z,4.95
2023-02-26T12:23:38.402Z,5.26
2023-02-26T12:26:21.667Z,5.13
2023-02-26T12:29:00.927Z,5.28
2023-02-26T12:31:47.501Z,5.18
2023-02-26T12:34:30.406Z,5.19
2023-02-26T12:37:06.695Z,5.15
2023-02-26T12:39:44.111Z,4.99
2023-02-26T12:42:19.806Z,5.10
2023-02-26T12:45:13.745Z,4.99
2023-02-26T12:47:47.587Z,5.03
2023-02-26T12:50:32.954Z,5.08
2023-02-26T12:53:14.268Z,4.95
2023-02-26T12:55:52.100Z,5.11
2023-02-26T12:58:55.605Z,5.15
2023-02-26T13:01:56.063Z,5.23
2023-02-26T13:05:04.253Z,5.12
2023-02-26T13:07:50.756Z,5.03
2023-02-26T13:10:27.961Z,5.05
2023-02-26T13:13:07.242Z,5.11
2023-02-26T13:15:48.732Z,5.05
2023-02-26T13:18:19.341Z,5.03
2023-02-26T13:20:54.094Z,4.91
2023-02-26T13:23:24.783Z,4.85
2023-02-26T13:25:55.261Z,4.95
2023-02-26T13:28:25.645Z,5.00
2023-02-26T13:30:55.760Z,4.98
2023-02-26T13:33:26.138Z,5.22
2023-02-26T13:35:54.691Z,5.15
2023-02-26T13:38:29.369Z,5.11
2023-02-26T13:41:04.297Z,5.20
2023-02-26T13:43:51.410Z,4.88
2023-02-26T13:46:27.617Z,4.95
2023-02-26T13:49:00.511Z,4.98
2023-02-26T13:51:35.397Z,5.16
2023-02-26T13:54:09.782Z,5.23
2023-02-26T13:56:49.627Z,5.15
2023-02-26T13:59:31.788Z,5.11
2023-02-26T14:02:02.184Z,5.08
2023-02-26T14:04:31.174Z,5.17
2023-02-26T14:07:00.047Z,4.99
2023-02-26T14:09:37.720Z,5.04
2023-02-26T14:12:06.078Z,5.06
2023-02-26T14:14:38.630Z,5.01
2023-02-26T14:17:39.330Z,5.03
2023-02-26T14:20:23.009Z,5.23
2023-02-26T14:23:09.477Z,5.18
2023-02-26T14:25:40.157Z,5.24
2023-02-26T14:28:41.714Z,5.22
2023-02-26T14:31:19.689Z,5.08
2023-02-26T14:33:49.960Z,5.13
2023-02-26T14:36:21.358Z,5.19
2023-02-26T14:38:49.927Z,5.28
2023-02-26T14:41:27.293Z,5.16
2023-02-26T14:44:00.091Z,5.25
2023-02-26T14:46:28.342Z,5.31
2023-02-26T14:48:55.897Z,5.30
2023-02-26T14:51:40.331Z,5.17
2023-02-26T14:54:18.615Z,5.35
2023-02-26T14:56:55.445Z,5.14
2023-02-26T15:05:17.153Z,5.19
2023-02-26T15:07:53.369Z,5.24
2023-02-26T15:10:30.594Z,5.18
2023-02-26T15:13:32.263Z,5.23
2023-02-26T15:16:21.559Z,5.16
2023-02-26T15:19:03.554Z,5.13
2023-02-26T15:21:36.986Z,5.28
2023-02-26T15:24:20.175Z,5.33
2023-02-26T15:26:51.807Z,5.19
2023-02-26T15:29:23.852Z,5.21
2023-02-26T15:31:57.297Z,5.30
2023-02-26T15:34:28.597Z,5.23
2023-02-26T15:37:00.787Z,5.14
2023-02-26T15:39:29.415Z,5.24
2023-02-26T15:41:57.590Z,5.33
2023-02-26T15:44:29.703Z,5.39
2023-02-26T15:47:03.376Z,5.45
2023-02-26T15:49:35.026Z,5.29
2023-02-26T15:52:07.156Z,5.28
2023-02-26T15:54:36.886Z,5.24
2023-02-26T15:57:07.366Z,5.22
2023-02-26T15:59:48.870Z,5.20
2023-02-26T16:02:22.671Z,5.28
2023-02-26T16:04:55.115Z,5.21
2023-02-26T16:07:25.150Z,5.03
2023-02-26T16:09:55.373Z,5.07
2023-02-26T16:12:26.341Z,5.01
2023-02-26T16:14:58.425Z,5.09
2023-02-26T16:17:28.208Z,5.02
2023-02-26T16:20:04.491Z,5.12
2023-02-26T16:22:35.485Z,5.07
2023-02-26T16:25:07.343Z,4.86
2023-02-26T16:27:43.054Z,4.89
2023-02-26T16:30:19.724Z,4.65
2023-02-26T16:32:53.517Z,4.76
2023-02-26T16:35:24.399Z,4.79
2023-02-26T16:37:55.286Z,4.69
2023-02-26T16:40:30.102Z,4.60
2023-02-26T16:43:08.475Z,4.67
2023-02-26T16:45:50.920Z,4.79
2023-02-26T16:48:23.988Z,4.85
2023-02-26T16:51:09.351Z,4.85
2023-02-26T16:53:43.488Z,4.88
2023-02-26T16:56:16.970Z,4.78
2023-02-26T16:58:45.555Z,4.93
2023-02-26T17:01:17.586Z,4.94
2023-02-26T17:03:53.070Z,4.83
2023-02-26T17:06:23.461Z,4.79
2023-02-26T17:08:58.147Z,4.73
2023-02-26T17:11:33.145Z,4.65
2023-02-26T17:14:23.518Z,4.50
2023-02-26T17:16:53.400Z,4.67
2023-02-26T17:19:25.101Z,4.78
2023-02-26T17:21:59.943Z,4.79
2023-02-26T17:24:31.759Z,4.68
2023-02-26T17:27:04.994Z,4.69
2023-02-26T17:29:37.298Z,4.72
2023-02-26T17:32:14.948Z,4.71
2023-02-26T17:34:49.564Z,4.64
2023-02-26T17:37:23.742Z,4.68
2023-02-26T17:39:51.921Z,4.43
2023-02-26T17:42:21.550Z,4.65
2023-02-26T17:44:55.727Z,4.87
2023-02-26T17:48:09.776Z,4.88
2023-02-26T17:50:44.834Z,4.70
2023-02-26T17:53:16.951Z,4.78
2023-02-26T17:55:47.316Z,4.68
2023-02-26T17:58:19.731Z,4.69
2023-02-26T18:00:56.949Z,4.70
2023-02-26T18:03:28.971Z,4.50
2023-02-26T18:06:03.685Z,4.65
2023-02-26T18:08:33.660Z,4.60
2023-02-26T18:11:03.185Z,4.52
2023-02-26T18:13:31.593Z,4.61
2023-02-26T18:16:01.083Z,4.41
2023-02-26T18:18:31.959Z,4.38
2023-02-26T18:21:03.198Z,4.44
2023-02-26T18:23:31.385Z,4.37
2023-02-26T18:25:59.539Z,4.42
2023-02-26T18:28:28.433Z,4.29
2023-02-26T18:30:57.205Z,4.40
2023-02-26T18:33:26.230Z,4.36
2023-02-26T18:35:58.453Z,4.55
2023-02-26T18:38:28.411Z,4.67
2023-02-26T18:40:56.017Z,4.49
2023-02-26T18:43:23.543Z,4.65
2023-02-26T18:45:52.986Z,4.38
2023-02-26T18:48:21.797Z,4.34
2023-02-26T18:50:49.810Z,4.84
2023-02-26T18:53:23.151Z,4.82
2023-02-26T18:55:51.880Z,4.86
2023-02-26T18:58:19.724Z,4.92
2023-02-26T19:00:47.803Z,4.92
2023-02-26T19:03:15.341Z,4.79
2023-02-26T19:05:43.004Z,4.84
2023-02-26T19:08:11.031Z,4.88
2023-02-26T19:10:40.073Z,4.56
2023-02-26T19:13:07.699Z,4.56
2023-02-26T19:15:35.251Z,4.86
2023-02-26T19:32:38.242Z,4.91
2023-02-26T19:35:07.809Z,4.78
2023-02-26T19:37:35.653Z,4.80
2023-02-26T19:40:06.743Z,4.79
2023-02-26T19:42:35.381Z,4.77
2023-02-26T19:45:02.833Z,4.78
2023-02-26T19:47:30.214Z,4.78
2023-02-26T19:49:59.154Z,4.82
2023-02-26T19:52:28.111Z,4.75
2023-02-26T19:54:55.640Z,4.76
2023-02-26T19:57:23.124Z,4.72
2023-02-26T19:59:50.676Z,4.70
2023-02-26T20:02:18.263Z,4.80
2023-02-26T20:04:46.254Z,4.68
2023-02-26T20:07:15.142Z,4.70
2023-02-26T20:09:43.189Z,4.72
2023-02-26T20:12:10.691Z,4.80
2023-02-26T20:14:38.224Z,4.71
2023-02-26T20:17:07.936Z,4.69
2023-02-26T20:19:35.455Z,4.72
2023-02-26T20:22:02.987Z,4.73
2023-02-26T20:24:34.243Z,4.64
2023-02-26T20:27:03.681Z,4.63
2023-02-26T20:29:31.195Z,4.72
2023-02-26T20:31:59.211Z,4.61
2023-02-26T20:34:26.923Z,4.66
2023-02-26T20:36:55.770Z,4.67
2023-02-26T20:39:23.618Z,4.65
2023-02-26T20:41:52.452Z,4.56
2023-02-26T20:44:20.017Z,4.63
2023-02-26T20:46:47.659Z,4.57
2023-02-26T20:49:15.117Z,4.55
2023-02-26T20:51:42.892Z,4.56
2023-02-26T20:54:12.744Z,4.52
2023-02-26T20:56:40.121Z,4.51
2023-02-26T20:59:09.533Z,4.50
2023-02-26T21:01:36.956Z,4.47
2023-02-26T21:04:05.442Z,4.40
2023-02-26T21:06:33.674Z,4.44
2023-02-26T21:09:03.150Z,4.41
2023-02-26T21:11:32.003Z,4.29
2023-02-26T21:13:59.598Z,4.30
2023-02-26T21:16:28.944Z,4.41
2023-02-26T21:18:56.908Z,4.37
2023-02-26T21:21:24.264Z,4.39
2023-02-26T21:23:53.051Z,4.37
2023-02-26T21:26:20.846Z,4.37
2023-02-26T21:28:48.925Z,4.31
2023-02-26T21:31:17.864Z,4.31
2023-02-26T21:33:46.915Z,4.34
2023-02-26T21:36:15.640Z,4.41
2023-02-26T21:38:43.010Z,4.26
2023-02-26T21:41:10.452Z,4.26
2023-02-26T21:43:37.919Z,4.25
2023-02-26T21:46:05.682Z,4.24
2023-02-26T21:48:33.486Z,4.26
2023-02-26T21:51:03.599Z,4.25
2023-02-26T21:53:31.427Z,4.18
2023-02-26T21:55:58.873Z,4.13
2023-02-26T21:58:26.433Z,4.17
2023-02-26T22:00:53.964Z,4.14
2023-02-26T22:03:21.542Z,4.17
2023-02-26T22:05:51.304Z,4.06
2023-02-26T22:08:20.035Z,4.05
2023-02-26T22:10:47.398Z,4.02
2023-02-26T22:13:14.830Z,4.07
2023-02-26T22:15:42.343Z,4.03
2023-02-26T22:18:09.745Z,4.08
2023-02-26T22:20:37.428Z,4.04
2023-02-26T22:23:28.474Z,4.04
2023-02-26T22:25:56.429Z,4.09
2023-02-26T22:28:23.980Z,4.05
2023-02-26T22:30:51.881Z,3.97
2023-02-26T22:33:19.647Z,3.98
2023-02-26T22:59:59.162Z,3.83
2023-02-26T23:02:27.217Z,3.74
2023-02-26T23:04:59.055Z,3.74
2023-02-26T23:07:26.964Z,3.79
2023-02-26T23:10:07.095Z,3.69
2023-02-26T23:12:42.697Z,3.87
2023-02-26T23:15:12.716Z,3.77
2023-02-26T23:25:51.140Z,3.74
2023-02-26T23:28:29.522Z,3.78
